Latest Weather Observations for Yeppoon

IDQ60801

Issued at 9:13 am EST Tuesday 7 December 2021 (issued every 10 minutes, with the page automatically refreshed every 10 minutes)

About weather observations | Map of weather stations | Latest weather observations for QLD | Other Formats
Station Details ID: 033294 Name: YEPPOON THE ESPLANADE Lat: -23.14 Lon: 150.75 Height: 5.5 m
Data from the previous 72 hours. | See also: Recent months at Yeppoon
Date/Time
EST
Temp
°C
App
Temp
°C
Dew
Point
°C
Rel
Hum
%
Delta-T
°C
Wind Press
QNH
hPa
Press
MSL
hPa
Rain since
9am
mm
Dir  Spd
km/h
Gust
km/h
Spd
kts
Gust
kts
07/09:00am 27.3 28.7 22.5 75 3.2 ESE 19 26 10 14 1013.3 1013.3 0.0
07/08:30am 27.4 29.2 22.6 75 3.2 ESE 17 24 9 13 1013.8 1013.8 0.0
07/08:00am 26.6 27.4 21.8 75 3.2 ESE 20 28 11 15 1013.5 1013.5 0.0
07/07:30am 26.2 27.5 21.6 76 3.1 ESE 17 28 9 15 1013.2 1013.2 0.0
07/07:00am 25.4 27.8 22.9 86 1.7 SE 15 22 8 12 1013.1 1013.1 0.0
07/06:30am 25.0 27.9 23.1 89 1.3 SE 13 19 7 10 1012.8 1012.8 0.0
07/06:00am 23.4 27.4 22.7 96 0.5 SSW 6 7 3 4 1012.8 1012.8 0.0
07/05:30am 23.1 26.3 22.3 95 0.5 S 9 15 5 8 1012.6 1012.6 0.0
07/05:00am 23.5 26.6 22.1 92 0.9 S 9 13 5 7 1012.2 1012.2 0.0
07/04:30am 24.4 26.3 22.1 87 1.5 S 15 22 8 12 1012.1 1012.1 0.0
07/04:00am 25.4 26.3 20.9 76 3.0 SE 17 26 9 14 1011.8 1011.8 0.0
07/03:30am 25.0 27.1 21.7 82 2.2 SSE 13 15 7 8 1011.6 1011.6 0.0
07/03:00am 25.7 26.3 20.3 72 3.5 ESE 17 26 9 14 1011.7 1011.7 0.0
07/02:30am 25.6 26.9 20.8 75 3.2 SE 15 24 8 13 1011.7 1011.7 0.0
07/02:00am 25.8 26.2 20.6 73 3.4 ESE 19 30 10 16 1011.9 1011.9 0.0
07/01:30am 25.8 26.4 21.0 75 3.2 SE 19 30 10 16 1012.0 1012.0 0.0
07/01:00am 25.9 26.8 21.6 77 2.9 ESE 19 26 10 14 1012.2 1012.2 0.0
07/12:30am 25.9 26.4 22.0 79 2.6 ESE 22 30 12 16 1012.2 1012.2 0.0
07/12:00am 25.7 25.5 22.8 84 2.0 E 28 35 15 19 1012.5 1012.5 0.0
 
Date/Time
EST
Temp
°C
App
Temp
°C
Dew
Point
°C
Rel
Hum
%
Delta-T
°C
Wind Press
QNH
hPa
Press
MSL
hPa
Rain since
9am
mm
Dir  Spd
km/h
Gust
km/h
Spd
kts
Gust
kts
06/11:30pm 26.1 26.3 22.0 78 2.7 ESE 24 30 13 16 1012.9 1012.9 0.0
06/11:00pm 26.3 27.2 21.9 77 2.9 ESE 20 28 11 15 1013.0 1013.0 0.0
06/10:30pm 26.2 26.1 21.4 75 3.2 E 24 32 13 17 1013.2 1013.2 0.0
06/10:00pm 26.4 26.0 21.6 75 3.2 E 26 32 14 17 1013.2 1013.2 0.0
06/09:30pm 26.3 25.7 21.3 74 3.3 ESE 26 33 14 18 1013.1 1013.1 0.0
06/09:00pm 26.1 26.1 21.7 77 2.9 ESE 24 32 13 17 1012.8 1012.8 0.0
06/08:30pm 26.2 26.3 21.8 77 2.9 ESE 24 30 13 16 1012.6 1012.6 0.0
06/08:00pm 26.2 26.8 22.1 78 2.7 E 22 30 12 16 1012.5 1012.5 0.0
06/07:30pm 26.1 27.4 22.4 80 2.5 E 19 28 10 15 1012.4 1012.4 0.0
06/07:00pm 26.3 27.7 22.8 81 2.4 E 20 26 11 14 1011.9 1011.9 0.0
06/06:30pm 26.3 27.2 22.6 80 2.5 ESE 22 32 12 17 1011.2 1011.2 0.0
06/06:00pm 26.3 26.4 22.6 80 2.5 E 26 32 14 17 1011.1 1011.1 0.0
06/05:30pm 26.4 27.1 22.9 81 2.4 E 24 32 13 17 1010.6 1010.6 0.0
06/05:00pm 26.6 26.9 22.9 80 2.5 E 26 33 14 18 1010.4 1010.4 0.0
06/04:30pm 26.9 27.3 23.2 80 2.5 E 26 32 14 17 1010.2 1010.2 0.0
06/04:00pm 26.8 26.9 22.6 78 2.8 E 26 30 14 16 1010.3 1010.3 0.0
06/03:30pm 27.1 27.9 23.1 79 2.7 E 24 32 13 17 1010.5 1010.5 0.0
06/03:00pm 27.8 29.0 22.5 73 3.6 ESE 20 28 11 15 1010.9 1010.9 0.0
06/02:30pm 27.9 29.0 23.1 75 3.3 ESE 22 30 12 16 1011.1 1011.1 0.0
06/02:00pm 27.6 28.0 23.2 77 3.0 ESE 26 32 14 17 1011.3 1011.3 0.0
06/01:30pm 27.7 28.5 23.1 76 3.1 ESE 24 32 13 17 1011.7 1011.7 0.0
06/01:00pm 27.9 29.3 22.8 74 3.5 ESE 20 30 11 16 1012.0 1012.0 0.0
06/12:30pm 27.6 28.4 22.5 74 3.4 ESE 22 30 12 16 1012.2 1012.2 0.0
06/12:00pm 27.6 29.1 23.0 76 3.1 ESE 20 30 11 16 1012.3 1012.3 0.0
06/11:30am 28.1 29.7 23.2 74 3.3 ESE 20 30 11 16 1012.3 1012.3 0.0
06/11:00am 27.3 28.5 22.5 75 3.2 ESE 20 32 11 17 1012.6 1012.6 0.0
06/10:30am 27.2 28.2 22.8 77 3.0 ESE 22 32 12 17 1012.7 1012.7 0.0
06/10:00am 26.9 28.3 22.9 79 2.7 ESE 20 28 11 15 1012.8 1012.8 0.0
06/09:30am 26.8 27.6 23.1 80 2.5 SE 24 32 13 17 1012.8 1012.8 0.0
06/09:00am 27.0 28.9 23.7 82 2.3 SE 20 30 11 16 1012.8 1012.8 31.4
06/08:30am 26.4 28.3 23.7 85 1.9 ESE 20 32 11 17 1012.8 1012.8 31.2
06/08:00am 25.3 27.2 23.5 90 1.2 SE 19 26 10 14 1013.0 1013.0 31.2
06/07:30am 25.5 28.4 24.5 94 0.7 SE 17 24 9 13 1012.8 1012.8 31.2
06/07:00am 24.6 27.5 24.4 99 0.1 SE 17 24 9 13 1012.5 1012.5 31.2
06/06:30am 24.4 27.6 24.4 100 0.0 SE 15 24 8 13 1012.2 1012.2 31.2
06/06:00am 23.9 27.2 23.9 100 0.0 SSE 13 20 7 11 1011.9 1011.9 31.0
06/05:30am 23.9 28.0 23.9 100 0.0 SSE 9 15 5 8 1011.6 1011.6 30.4
06/05:00am 23.4 26.1 23.4 100 0.0 SE 15 32 8 17 1011.1 1011.1 30.4
06/04:30am 22.5 23.3 22.5 100 0.0 SSE 22 35 12 19 1011.2 1011.2 15.0
06/04:00am 23.5 23.9 22.5 94 0.7 ESE 24 43 13 23 1011.0 1011.0 2.2
06/03:30am 25.8 26.6 21.7 78 2.7 ESE 20 30 11 16 1010.4 1010.4 0.0
06/03:00am 26.1 26.5 22.4 80 2.5 E 24 35 13 19 1010.6 1010.6 0.0
06/02:30am 26.3 25.3 21.9 77 2.9 E 30 35 16 19 1010.8 1010.8 0.0
06/02:00am 26.3 25.9 22.4 79 2.6 E 28 35 15 19 1010.8 1010.8 0.0
06/01:30am 26.4 26.6 22.7 80 2.5 E 26 33 14 18 1011.1 1011.1 0.0
06/01:00am 26.2 25.8 22.3 79 2.6 E 28 37 15 20 1011.2 1011.2 0.0
06/12:30am 26.3 25.9 22.4 79 2.6 E 28 35 15 19 1011.2 1011.2 0.0
06/12:00am 26.6 26.9 22.9 80 2.5 E 26 32 14 17 1011.8 1011.8 0.0
 
Date/Time
EST
Temp
°C
App
Temp
°C
Dew
Point
°C
Rel
Hum
%
Delta-T
°C
Wind Press
QNH
hPa
Press
MSL
hPa
Rain since
9am
mm
Dir  Spd
km/h
Gust
km/h
Spd
kts
Gust
kts
05/11:30pm 26.5 25.7 22.3 78 2.8 E 30 35 16 19 1012.3 1012.3 0.0
05/11:00pm 26.6 27.3 22.9 80 2.5 E 24 28 13 15 1012.5 1012.5 0.0
05/10:30pm 26.7 26.5 22.8 79 2.6 E 28 33 15 18 1012.4 1012.4 0.0
05/10:00pm 26.7 26.3 22.3 77 3.0 E 28 35 15 19 1012.1 1012.1 0.0
05/09:30pm 26.5 25.7 21.7 75 3.2 ESE 28 35 15 19 1012.2 1012.2 0.0
05/09:00pm 26.5 24.9 21.9 76 3.1 E 33 39 18 21 1011.3 1011.3 0.0
05/08:30pm 26.9 26.4 22.1 75 3.2 E 28 35 15 19 1012.3 1012.3 0.0
05/08:00pm 26.8 25.7 21.8 74 3.3 E 30 35 16 19 1011.3 1011.3 0.0
05/07:30pm 26.7 25.3 21.9 75 3.2 ENE 32 39 17 21 1011.0 1011.0 0.0
05/07:00pm 26.6 26.1 22.2 77 3.0 E 28 33 15 18 1011.1 1011.1 0.0
05/06:30pm 26.5 25.6 22.1 77 3.0 E 30 39 16 21 1011.1 1011.1 0.0
05/06:00pm 26.5 26.0 22.1 77 3.0 E 28 35 15 19 1010.5 1010.5 0.0
05/05:30pm 26.6 24.9 21.4 73 3.5 E 32 39 17 21 1010.2 1010.2 0.0
05/05:00pm 26.9 26.0 22.1 75 3.2 E 30 35 16 19 1010.1 1010.1 0.0
05/04:30pm 26.8 26.4 22.4 77 3.0 E 28 33 15 18 1009.6 1009.6 0.0
05/04:00pm 27.2 27.3 23.2 79 2.7 E 28 33 15 18 1009.4 1009.4 0.0
05/03:30pm 27.3 27.5 22.7 76 3.1 ENE 26 32 14 17 1009.4 1009.4 0.0
05/03:00pm 28.0 28.9 22.7 73 3.6 ESE 22 30 12 16 1009.7 1009.7 0.0
05/02:30pm 27.7 28.8 22.4 73 3.6 ESE 20 26 11 14 1010.1 1010.1 0.0
05/02:00pm 28.0 29.6 23.2 75 3.3 ESE 20 30 11 16 1010.2 1010.2 0.0
05/01:30pm 27.6 29.0 22.8 75 3.3 ESE 20 28 11 15 1010.5 1010.5 0.0
05/01:00pm 27.4 28.7 22.6 75 3.3 ESE 20 24 11 13 1010.9 1010.9 0.0
05/12:30pm 27.6 28.8 21.4 69 4.1 E 17 20 9 11 1011.0 1011.0 0.0
05/12:00pm 27.3 28.1 21.3 69 4.0 ESE 19 22 10 12 1011.0 1011.0 0.0
05/11:30am 27.5 29.1 21.5 70 4.0 ESE 15 20 8 11 1011.0 1011.0 0.0
05/11:00am 26.8 27.9 22.0 75 3.2 E 19 22 10 12 1011.0 1011.0 0.0
05/10:30am 27.1 29.6 22.5 76 3.1 E 13 15 7 8 1011.0 1011.0 0.0
05/10:00am 27.0 30.2 22.4 76 3.1 ENE 9 13 5 7 1011.2 1011.2 0.0
05/09:30am 27.3 31.1 22.7 76 3.1 ENE 7 9 4 5 1011.3 1011.3 0.0
05/09:00am 25.3 29.4 23.2 88 1.4 W 7 13 4 7 1011.4 1011.4 48.2
05/08:30am 23.3 26.7 23.3 100 0.0 W 11 17 6 9 1011.7 1011.7 48.2
05/08:00am 22.2 24.9 22.2 100 0.0 WSW 11 17 6 9 1011.6 1011.6 48.2
05/07:30am 21.7 24.6 21.7 100 0.0 SW 9 13 5 7 1011.8 1011.8 48.2
05/07:00am 21.1 23.6 21.1 100 0.0 E 9 13 5 7 1012.5 1012.5 48.2
05/06:30am 20.5 18.8 20.5 100 0.0 SE 30 54 16 29 1013.1 1013.1 41.8
05/06:23am 20.6 18.3 20.6 100 0.0 SE 33 54 18 29 1013.2 1013.2 35.4
05/06:04am 22.5 23.4 22.0 97 0.3 SSE 20 65 11 35 1012.8 1012.8 8.6
05/06:00am 23.9 27.2 23.2 96 0.5 SSE 11 20 6 11 1012.5 1012.5 5.0
05/05:30am 25.8 27.6 21.9 79 2.6 E 15 20 8 11 1011.3 1011.3 0.0
05/05:00am 25.6 27.7 21.7 79 2.6 SE 13 20 7 11 1010.6 1010.6 0.0
05/04:30am 25.3 27.1 21.8 81 2.3 ESE 15 22 8 12 1010.1 1010.1 0.0
05/04:00am 24.6 28.6 22.8 90 1.2 WSW 6 9 3 5 1009.9 1009.9 0.0
05/03:30am 24.7 28.6 22.6 88 1.4 WSW 6 9 3 5 1009.5 1009.5 0.0
05/03:00am 26.1 29.6 22.2 79 2.6 ESE 7 9 4 5 1009.4 1009.4 0.0
05/02:30am 26.0 28.7 22.1 79 2.6 ENE 11 15 6 8 1009.1 1009.1 0.0
05/02:00am 25.9 28.4 22.4 81 2.4 ENE 13 17 7 9 1008.9 1008.9 0.0
05/01:30am 26.0 28.5 22.5 81 2.4 ENE 13 19 7 10 1009.3 1009.3 0.0
05/01:00am 26.0 28.0 22.3 80 2.5 ENE 15 19 8 10 1009.4 1009.4 0.0
05/12:30am 26.2 27.8 22.9 82 2.2 NE 19 24 10 13 1009.5 1009.5 0.0
05/12:00am 26.4 28.2 23.3 83 2.1 ENE 19 20 10 11 1009.9 1009.9 0.0
 
Date/Time
EST
Temp
°C
App
Temp
°C
Dew
Point
°C
Rel
Hum
%
Delta-T
°C
Wind Press
QNH
hPa
Press
MSL
hPa
Rain since
9am
mm
Dir  Spd
km/h
Gust
km/h
Spd
kts
Gust
kts
04/11:30pm 26.3 28.2 23.4 84 2.0 ENE 19 24 10 13 1010.0 1010.0 0.0
04/11:00pm 26.3 28.8 23.2 83 2.1 NE 15 20 8 11 1010.5 1010.5 0.0
04/10:30pm 26.3 28.7 23.0 82 2.2 NE 15 19 8 10 1010.9 1010.9 0.0
04/10:00pm 26.4 28.5 23.1 82 2.2 ENE 17 20 9 11 1011.0 1011.0 0.0
04/09:30pm 26.4 28.6 23.3 83 2.1 ENE 17 20 9 11 1010.7 1010.7 0.0
04/09:00pm 26.4 28.2 23.3 83 2.1 ENE 19 22 10 12 1010.5 1010.5 0.0
04/08:30pm 26.5 28.7 23.2 82 2.2 NE 17 20 9 11 1010.4 1010.4 0.0
04/08:00pm 26.6 28.7 23.1 81 2.4 ENE 17 22 9 12 1010.1 1010.1 0.0
04/07:30pm 26.6 28.9 23.5 83 2.1 ENE 17 20 9 11 1010.1 1010.1 0.0
04/07:00pm 26.5 29.0 23.2 82 2.2 ENE 15 20 8 11 1010.0 1010.0 0.0
04/06:30pm 26.7 29.0 23.4 82 2.3 NE 17 20 9 11 1009.5 1009.5 0.0
04/06:00pm 26.7 29.1 23.0 80 2.5 NE 15 20 8 11 1009.4 1009.4 0.0
04/05:30pm 27.1 29.2 23.1 79 2.7 ENE 17 20 9 11 1009.2 1009.2 0.0
04/05:00pm 27.1 29.0 22.7 77 3.0 ENE 17 20 9 11 1008.9 1008.9 0.0
04/04:30pm 27.2 28.5 22.4 75 3.2 ENE 19 22 10 12 1008.9 1008.9 0.0
04/04:00pm 27.4 28.8 22.8 76 3.1 ENE 20 24 11 13 1009.0 1009.0 0.0
04/03:30pm 27.6 28.8 22.5 74 3.4 ENE 20 24 11 13 1009.1 1009.1 0.0
04/03:00pm 27.8 29.1 22.3 72 3.7 NE 19 24 10 13 1009.4 1009.4 0.0
04/02:30pm 27.9 29.0 21.9 70 4.0 ENE 19 26 10 14 1009.6 1009.6 0.0
04/02:00pm 28.2 29.2 21.0 65 4.8 E 17 20 9 11 1010.0 1010.0 0.0
04/01:30pm 27.8 29.1 21.6 69 4.1 E 17 20 9 11 1010.2 1010.2 0.0
04/01:00pm 27.7 28.6 22.0 71 3.8 E 20 24 11 13 1010.5 1010.5 0.0
04/12:30pm 27.9 28.4 21.2 67 4.5 ESE 20 24 11 13 1011.0 1011.0 0.0
04/12:00pm 27.8 28.4 21.3 67 4.3 E 20 24 11 13 1011.3 1011.3 0.0
04/11:30am 27.7 28.3 21.0 67 4.4 E 19 20 10 11 1011.8 1011.8 0.0
04/11:00am 27.8 29.1 22.3 72 3.7 ESE 19 28 10 15 1012.3 1012.3 0.0
04/10:30am 27.8 29.2 22.5 73 3.6 E 19 22 10 12 1012.6 1012.6 0.0
04/10:00am 27.6 28.6 22.1 72 3.7 ESE 20 26 11 14 1012.9 1012.9 0.0
04/09:30am 27.5 28.7 22.2 73 3.6 ESE 19 26 10 14 1012.9 1012.9 0.0

Other formats

Comma delimited format used in spreadsheet applications
http://www.bom.gov.au/fwo/IDQ60801/IDQ60801.94373.axf

JavaScript Object Notation format (JSON) in row-major order
http://www.bom.gov.au/fwo/IDQ60801/IDQ60801.94373.json

Data quality

Most of these data are generated automatically and are frequently updated. Quality checks on data are not normally performed. It is possible for incorrect values to appear. Refer to information at About Latest Weather Observations and please check the disclaimer before using these data.